Time;durP1;ratioP1;P1;durP2;ratioP2;P2;SDS_P1;SDS_P2;PMS_P1;PMS_P2;Temp;Humidity;BMP_temperature;BMP_pressure;BME280_temperature;BME280_humidity;BME280_pressure;Samples;Min_cycle;Max_cycle;Signal;HPM_P1;HPM_P2
2022/04/17 00:01:42;;;;;;;9.05;5.18;;;;;;;;;;5000803;28;20116;-79
2022/04/17 00:04:10;;;;;;;8.38;5.35;;;;;;;;;;4995079;28;20039;-82
2022/04/17 00:06:37;;;;;;;9.95;5.07;;;;;;;;;;4991503;28;20053;-81
2022/04/17 00:09:05;;;;;;;8.73;5.05;;;;;;;;;;4995318;28;20076;-80
2022/04/17 00:11:34;;;;;;;7.88;4.82;;;;;;;;;;4995729;28;20506;-81
2022/04/17 00:14:00;;;;;;;10.07;5.38;;;;;;;;;;5001406;28;20046;-80
2022/04/17 00:16:27;;;;;;;7.75;5.30;;;;;;;;;;5014904;28;20042;-80
2022/04/17 00:18:53;;;;;;;9.18;5.35;;;;;;;;;;5016489;28;20104;-80
2022/04/17 00:21:22;;;;;;;10.02;5.35;;;;;;;;;;5019896;28;20074;-80
2022/04/17 00:23:49;;;;;;;7.75;5.63;;;;;;;;;;5014376;28;20501;-82
2022/04/17 00:26:17;;;;;;;9.27;5.57;;;;;;;;;;5014703;28;20088;-80
2022/04/17 00:28:44;;;;;;;8.20;4.82;;;;;;;;;;5019138;28;20099;-80
2022/04/17 00:31:10;;;;;;;8.25;5.78;;;;;;;;;;5014842;28;20074;-80
2022/04/17 00:33:37;;;;;;;6.97;4.85;;;;;;;;;;5014269;28;20050;-80
2022/04/17 00:36:04;;;;;;;7.75;5.35;;;;;;;;;;5015109;28;20530;-81
2022/04/17 00:38:30;;;;;;;8.73;5.68;;;;;;;;;;5018300;28;20078;-80
2022/04/17 00:40:57;;;;;;;10.68;5.97;;;;;;;;;;5015148;28;20645;-80
2022/04/17 00:43:26;;;;;;;9.63;5.97;;;;;;;;;;5014533;28;20494;-80
2022/04/17 00:45:53;;;;;;;8.10;5.32;;;;;;;;;;5013674;28;20107;-79
2022/04/17 00:48:20;;;;;;;8.80;5.00;;;;;;;;;;5014779;28;20077;-80
2022/04/17 00:50:47;;;;;;;10.27;6.03;;;;;;;;;;5014745;28;20045;-81
2022/04/17 00:53:14;;;;;;;6.05;4.47;;;;;;;;;;5008864;28;20077;-82
2022/04/17 00:55:41;;;;;;;9.77;5.90;;;;;;;;;;5010324;28;20077;-80
2022/04/17 00:58:08;;;;;;;8.32;5.38;;;;;;;;;;5014550;28;20092;-80
2022/04/17 01:00:36;;;;;;;7.90;5.45;;;;;;;;;;5009682;28;20076;-80
2022/04/17 01:03:04;;;;;;;10.00;5.53;;;;;;;;;;5014281;28;20077;-80
2022/04/17 01:05:30;;;;;;;8.43;5.05;;;;;;;;;;5014019;28;20096;-81
2022/04/17 01:07:57;;;;;;;9.10;5.00;;;;;;;;;;5014380;28;20081;-81
2022/04/17 01:10:24;;;;;;;12.27;5.28;;;;;;;;;;5013728;28;20065;-80
2022/04/17 01:12:51;;;;;;;10.65;6.18;;;;;;;;;;5013794;28;20046;-81
2022/04/17 01:15:17;;;;;;;8.73;5.20;;;;;;;;;;5025896;28;20137;-81
2022/04/17 01:17:45;;;;;;;9.88;5.05;;;;;;;;;;5034103;28;20073;-79
2022/04/17 01:20:13;;;;;;;9.10;5.28;;;;;;;;;;5021462;28;20049;-80
2022/04/17 01:22:47;;;;;;;10.75;5.43;;;;;;;;;;5033694;28;20073;-80
2022/04/17 01:27:58;;;;;;;8.52;4.78;;;;;;;;;;5033346;28;20055;-79
2022/04/17 01:30:25;;;;;;;8.57;5.50;;;;;;;;;;5018744;28;20081;-81
2022/04/17 01:32:52;;;;;;;9.70;5.55;;;;;;;;;;5029443;28;20052;-79
2022/04/17 01:35:27;;;;;;;13.55;5.85;;;;;;;;;;5024497;28;20063;-81
2022/04/17 01:37:55;;;;;;;9.13;5.53;;;;;;;;;;5029752;28;20439;-81
2022/04/17 01:40:22;;;;;;;10.60;5.55;;;;;;;;;;5032560;28;20107;-81
2022/04/17 01:42:48;;;;;;;8.18;4.90;;;;;;;;;;5016147;28;20057;-82
2022/04/17 01:45:15;;;;;;;9.32;5.60;;;;;;;;;;5030217;28;20084;-82
2022/04/17 01:47:41;;;;;;;10.63;5.80;;;;;;;;;;5028591;28;20081;-82
2022/04/17 01:50:09;;;;;;;13.93;6.43;;;;;;;;;;5010727;28;20079;-81
2022/04/17 01:52:36;;;;;;;9.57;5.60;;;;;;;;;;5024497;28;20057;-80
2022/04/17 01:55:04;;;;;;;9.43;6.03;;;;;;;;;;5024072;28;20068;-81
2022/04/17 01:57:31;;;;;;;8.82;5.47;;;;;;;;;;5038716;28;20441;-81
2022/04/17 01:59:57;;;;;;;11.95;6.28;;;;;;;;;;5038869;28;20080;-81
2022/04/17 02:02:24;;;;;;;8.27;5.65;;;;;;;;;;5038819;28;20103;-80
2022/04/17 02:04:50;;;;;;;8.45;5.10;;;;;;;;;;5030987;28;20465;-81
2022/04/17 02:07:17;;;;;;;7.40;5.07;;;;;;;;;;5038589;28;20095;-82
2022/04/17 02:09:44;;;;;;;11.10;6.53;;;;;;;;;;5039188;28;20408;-81
2022/04/17 02:12:12;;;;;;;12.55;6.20;;;;;;;;;;5039469;28;20080;-81
2022/04/17 02:14:52;;;;;;;11.07;6.82;;;;;;;;;;5042170;28;20070;-81
2022/04/17 02:17:19;;;;;;;10.77;5.25;;;;;;;;;;5036271;28;20049;-81
2022/04/17 02:19:45;;;;;;;14.25;7.43;;;;;;;;;;5039228;28;20073;-81
2022/04/17 02:22:12;;;;;;;12.30;6.80;;;;;;;;;;5040939;28;20052;-82
2022/04/17 02:24:38;;;;;;;12.10;7.05;;;;;;;;;;5038317;28;20056;-81
2022/04/17 02:27:05;;;;;;;11.25;6.45;;;;;;;;;;5033292;28;20046;-81
2022/04/17 02:29:33;;;;;;;9.07;5.72;;;;;;;;;;5025340;28;20518;-81
2022/04/17 02:32:00;;;;;;;11.68;7.00;;;;;;;;;;5039302;28;20115;-81
2022/04/17 02:34:26;;;;;;;10.95;5.53;;;;;;;;;;5047657;28;20085;-80
2022/04/17 02:36:53;;;;;;;12.00;6.57;;;;;;;;;;5037763;28;20099;-80
2022/04/17 02:39:19;;;;;;;10.80;6.10;;;;;;;;;;5031645;28;20045;-79
2022/04/17 02:41:46;;;;;;;9.18;5.22;;;;;;;;;;5035832;28;20347;-82
2022/04/17 02:44:12;;;;;;;9.70;5.90;;;;;;;;;;5026283;28;20069;-81
2022/04/17 02:49:24;;;;;;;10.57;5.35;;;;;;;;;;5027074;28;20417;-80
2022/04/17 02:51:51;;;;;;;11.18;5.55;;;;;;;;;;5036862;28;20069;-80
2022/04/17 02:54:17;;;;;;;9.35;5.93;;;;;;;;;;5037082;28;20065;-79
2022/04/17 02:56:45;;;;;;;8.50;5.40;;;;;;;;;;5037881;28;20073;-80
2022/04/17 02:59:12;;;;;;;10.35;5.55;;;;;;;;;;5032365;28;20053;-81
2022/04/17 03:07:08;;;;;;;12.57;6.63;;;;;;;;;;5019078;28;20051;-80
2022/04/17 03:09:35;;;;;;;12.05;7.03;;;;;;;;;;5018622;28;20085;-80
2022/04/17 03:12:01;;;;;;;9.80;5.60;;;;;;;;;;5035734;28;20173;-80
2022/04/17 03:14:28;;;;;;;9.65;6.22;;;;;;;;;;5034569;28;20058;-80
2022/04/17 03:16:54;;;;;;;11.40;5.95;;;;;;;;;;5025295;28;20049;-80
2022/04/17 03:19:21;;;;;;;12.52;7.45;;;;;;;;;;5022381;28;20041;-80
2022/04/17 03:21:49;;;;;;;9.57;6.07;;;;;;;;;;5034518;28;20045;-80
2022/04/17 03:24:15;;;;;;;12.07;8.07;;;;;;;;;;5036508;28;20450;-81
2022/04/17 03:26:42;;;;;;;12.43;6.60;;;;;;;;;;5032787;28;20049;-79
2022/04/17 03:29:08;;;;;;;12.52;7.90;;;;;;;;;;5033549;28;20103;-79
2022/04/17 03:31:35;;;;;;;9.73;6.45;;;;;;;;;;5032203;28;20046;-80
2022/04/17 03:34:01;;;;;;;13.68;8.50;;;;;;;;;;5035625;28;20049;-80
2022/04/17 03:36:28;;;;;;;14.35;8.02;;;;;;;;;;5035687;28;20072;-79
2022/04/17 03:38:56;;;;;;;13.50;7.95;;;;;;;;;;5035554;28;20076;-80
2022/04/17 03:41:22;;;;;;;11.00;6.70;;;;;;;;;;5042571;28;20494;-80
2022/04/17 03:43:49;;;;;;;12.73;7.50;;;;;;;;;;5036260;28;20073;-79
2022/04/17 03:46:16;;;;;;;10.98;7.25;;;;;;;;;;5035009;28;20441;-80
2022/04/17 03:48:43;;;;;;;10.50;6.85;;;;;;;;;;5036048;28;20068;-80
2022/04/17 03:51:10;;;;;;;10.23;6.78;;;;;;;;;;5035239;28;20159;-80
2022/04/17 03:53:36;;;;;;;9.00;6.30;;;;;;;;;;5035271;28;20099;-79
2022/04/17 03:56:04;;;;;;;11.90;6.82;;;;;;;;;;5034554;28;20076;-81
2022/04/17 03:58:31;;;;;;;9.43;5.97;;;;;;;;;;5028615;28;20084;-79
2022/04/17 04:00:58;;;;;;;9.35;6.40;;;;;;;;;;5030372;28;20076;-80
2022/04/17 04:03:24;;;;;;;11.57;5.47;;;;;;;;;;5031235;28;20609;-80
2022/04/17 04:05:51;;;;;;;8.90;5.20;;;;;;;;;;5034012;28;20077;-79
2022/04/17 04:08:17;;;;;;;9.75;5.90;;;;;;;;;;5034784;28;20053;-78
2022/04/17 04:10:43;;;;;;;9.48;5.50;;;;;;;;;;5034854;28;20099;-79
2022/04/17 04:13:11;;;;;;;9.15;6.25;;;;;;;;;;5029935;28;20069;-80
2022/04/17 04:15:38;;;;;;;11.50;6.90;;;;;;;;;;5025880;28;20073;-80
2022/04/17 04:18:05;;;;;;;9.82;6.40;;;;;;;;;;5036078;28;20469;-82
2022/04/17 04:20:31;;;;;;;13.75;9.02;;;;;;;;;;5035308;28;20081;-80
2022/04/17 04:22:58;;;;;;;10.05;6.35;;;;;;;;;;5035316;28;20413;-79
2022/04/17 04:25:24;;;;;;;9.60;6.28;;;;;;;;;;5035032;28;20073;-81
2022/04/17 04:30:36;;;;;;;13.02;7.00;;;;;;;;;;5030843;28;20043;-79
2022/04/17 04:33:03;;;;;;;11.65;7.38;;;;;;;;;;5034813;28;20073;-81
2022/04/17 04:35:30;;;;;;;10.35;6.25;;;;;;;;;;5026053;28;20502;-80
2022/04/17 04:37:56;;;;;;;10.13;6.28;;;;;;;;;;5032069;28;20073;-80
2022/04/17 04:40:23;;;;;;;10.98;6.30;;;;;;;;;;5037783;28;20045;-81
2022/04/17 04:42:57;;;;;;;12.50;6.53;;;;;;;;;;5030164;28;20069;-81
2022/04/17 04:48:08;;;;;;;11.88;7.03;;;;;;;;;;5036784;28;20149;-82
2022/04/17 04:50:38;;;;;;;10.38;6.35;;;;;;;;;;5036516;28;20469;-81
2022/04/17 04:53:05;;;;;;;9.95;6.13;;;;;;;;;;5036487;28;20033;-80
2022/04/17 04:55:32;;;;;;;9.82;6.80;;;;;;;;;;5039782;28;20081;-79
2022/04/17 04:58:01;;;;;;;9.32;6.50;;;;;;;;;;5035165;28;20103;-79
2022/04/17 05:00:27;;;;;;;13.10;6.57;;;;;;;;;;5034067;28;20083;-82
2022/04/17 05:02:54;;;;;;;8.43;5.38;;;;;;;;;;5051817;28;20065;-79
2022/04/17 05:05:22;;;;;;;9.00;6.57;;;;;;;;;;5027426;28;20045;-81
2022/04/17 05:07:48;;;;;;;10.35;6.13;;;;;;;;;;5034186;28;20053;-81
2022/04/17 05:10:15;;;;;;;10.00;6.43;;;;;;;;;;5034066;28;20449;-83
2022/04/17 05:12:42;;;;;;;11.77;6.10;;;;;;;;;;5030214;28;20046;-81
2022/04/17 05:15:11;;;;;;;11.10;6.10;;;;;;;;;;5030897;28;20081;-80
2022/04/17 05:17:37;;;;;;;14.75;7.20;;;;;;;;;;5034477;28;20165;-81
2022/04/17 05:20:04;;;;;;;11.30;6.80;;;;;;;;;;5034859;28;20472;-82
2022/04/17 05:22:33;;;;;;;9.10;6.25;;;;;;;;;;5029014;28;20046;-81
2022/04/17 05:24:59;;;;;;;10.48;6.07;;;;;;;;;;5020736;28;20056;-81
2022/04/17 05:27:27;;;;;;;9.85;6.10;;;;;;;;;;5029485;28;20069;-81
2022/04/17 05:29:54;;;;;;;9.40;6.10;;;;;;;;;;5031067;28;20582;-82
2022/04/17 05:32:20;;;;;;;9.38;6.10;;;;;;;;;;5032763;28;20077;-82
2022/04/17 05:34:47;;;;;;;11.43;6.75;;;;;;;;;;5021002;28;20465;-82
2022/04/17 05:37:13;;;;;;;11.18;5.78;;;;;;;;;;5023474;28;20073;-82
2022/04/17 05:39:41;;;;;;;11.00;4.97;;;;;;;;;;5033429;28;20490;-82
2022/04/17 05:42:08;;;;;;;8.60;5.43;;;;;;;;;;5033162;28;20045;-79
2022/04/17 05:44:35;;;;;;;8.27;4.85;;;;;;;;;;5031513;28;20081;-81
2022/04/17 05:47:02;;;;;;;10.57;6.20;;;;;;;;;;5031302;28;20069;-79
2022/04/17 05:49:29;;;;;;;8.18;4.55;;;;;;;;;;5028292;28;20452;-79
2022/04/17 05:51:57;;;;;;;8.30;4.97;;;;;;;;;;5031999;28;20072;-79
2022/04/17 05:54:23;;;;;;;11.30;5.20;;;;;;;;;;5032680;28;20493;-81
2022/04/17 05:56:51;;;;;;;9.98;5.10;;;;;;;;;;5033564;28;20485;-80
2022/04/17 05:59:18;;;;;;;7.72;4.53;;;;;;;;;;5027752;28;20501;-81
2022/04/17 06:01:46;;;;;;;6.18;4.25;;;;;;;;;;5032198;28;20679;-79
2022/04/17 06:04:13;;;;;;;6.90;3.78;;;;;;;;;;5029558;28;20103;-80
2022/04/17 06:06:39;;;;;;;6.18;3.85;;;;;;;;;;5033935;28;20080;-81
2022/04/17 06:09:06;;;;;;;5.50;3.95;;;;;;;;;;5029143;28;20164;-80
2022/04/17 06:11:32;;;;;;;8.00;4.47;;;;;;;;;;5032912;28;20069;-80
2022/04/17 06:14:00;;;;;;;6.88;4.10;;;;;;;;;;5028775;28;20065;-80
2022/04/17 06:16:27;;;;;;;6.60;3.30;;;;;;;;;;5030603;28;20084;-80
2022/04/17 06:18:53;;;;;;;5.90;3.60;;;;;;;;;;5027586;28;20046;-79
2022/04/17 06:21:20;;;;;;;6.60;4.10;;;;;;;;;;5022419;28;20073;-80
2022/04/17 06:23:46;;;;;;;7.15;4.00;;;;;;;;;;5030642;28;20091;-80
2022/04/17 06:26:13;;;;;;;5.32;3.45;;;;;;;;;;5031579;28;20103;-81
2022/04/17 06:28:39;;;;;;;6.50;3.22;;;;;;;;;;5028556;28;20455;-81
2022/04/17 06:31:07;;;;;;;7.97;4.05;;;;;;;;;;5038140;28;20080;-79
2022/04/17 06:33:35;;;;;;;6.55;2.97;;;;;;;;;;5024340;28;20046;-81
2022/04/17 06:36:02;;;;;;;5.30;3.30;;;;;;;;;;5006809;28;20498;-79
2022/04/17 06:38:29;;;;;;;4.70;2.83;;;;;;;;;;5036212;28;20073;-81
2022/04/17 06:40:55;;;;;;;5.88;2.88;;;;;;;;;;5036439;28;20037;-81
2022/04/17 06:43:22;;;;;;;5.53;3.08;;;;;;;;;;5035821;28;20069;-80
2022/04/17 06:45:48;;;;;;;6.65;3.33;;;;;;;;;;5027326;28;20079;-80
2022/04/17 06:48:17;;;;;;;5.18;3.15;;;;;;;;;;5032398;28;20053;-80
2022/04/17 06:50:44;;;;;;;5.55;3.58;;;;;;;;;;5033388;28;20772;-79
2022/04/17 06:53:10;;;;;;;5.75;3.28;;;;;;;;;;5035799;28;20060;-80
2022/04/17 06:55:38;;;;;;;4.70;3.42;;;;;;;;;;5029215;28;20069;-79
2022/04/17 06:58:05;;;;;;;8.80;3.20;;;;;;;;;;5032438;28;20056;-80
2022/04/17 07:00:32;;;;;;;6.43;2.50;;;;;;;;;;5033929;28;20100;-80
2022/04/17 07:02:59;;;;;;;7.43;3.13;;;;;;;;;;5032783;28;20045;-89
2022/04/17 07:05:27;;;;;;;4.93;2.88;;;;;;;;;;5029902;28;20081;-80
2022/04/17 07:08:01;;;;;;;6.28;3.10;;;;;;;;;;5031794;28;20076;-85
2022/04/17 07:10:28;;;;;;;6.88;2.97;;;;;;;;;;5032102;28;20100;-88
2022/04/17 07:12:55;;;;;;;4.95;3.25;;;;;;;;;;5034515;28;20049;-80
2022/04/17 07:15:22;;;;;;;4.40;2.72;;;;;;;;;;5008597;28;20481;-78
2022/04/17 07:17:49;;;;;;;6.43;2.95;;;;;;;;;;5017070;28;20501;-80
2022/04/17 07:20:19;;;;;;;6.55;3.10;;;;;;;;;;5017270;28;20505;-78
2022/04/17 07:22:48;;;;;;;4.50;2.72;;;;;;;;;;5012933;28;21948;-79
2022/04/17 07:25:16;;;;;;;5.32;2.95;;;;;;;;;;5013597;28;20761;-80
2022/04/17 07:27:43;;;;;;;4.75;2.80;;;;;;;;;;5008599;28;20080;-78
2022/04/17 07:30:12;;;;;;;7.32;2.67;;;;;;;;;;5013364;28;20135;-78
2022/04/17 07:32:39;;;;;;;6.15;3.15;;;;;;;;;;5014119;28;20081;-79
2022/04/17 07:35:07;;;;;;;6.00;2.53;;;;;;;;;;5010404;28;20085;-80
2022/04/17 07:37:35;;;;;;;4.07;2.33;;;;;;;;;;5009235;28;20077;-79
2022/04/17 07:40:03;;;;;;;5.35;2.85;;;;;;;;;;5013990;28;20034;-78
2022/04/17 07:42:29;;;;;;;4.78;2.90;;;;;;;;;;5012726;28;20089;-80
2022/04/17 07:44:56;;;;;;;3.75;2.30;;;;;;;;;;5012745;28;20084;-79
2022/04/17 07:47:22;;;;;;;3.83;2.53;;;;;;;;;;5011370;28;20049;-78
2022/04/17 07:49:49;;;;;;;8.00;2.78;;;;;;;;;;5015081;28;20077;-78
2022/04/17 07:52:15;;;;;;;4.15;2.75;;;;;;;;;;5005220;28;20463;-80
2022/04/17 07:54:43;;;;;;;4.28;2.60;;;;;;;;;;5014184;28;20080;-79
2022/04/17 07:57:14;;;;;;;5.35;2.80;;;;;;;;;;5014539;28;20048;-80
2022/04/17 07:59:41;;;;;;;4.53;2.30;;;;;;;;;;5017993;28;20049;-79
2022/04/17 08:02:22;;;;;;;5.28;2.83;;;;;;;;;;5013104;28;20057;-79
2022/04/17 08:04:50;;;;;;;5.13;2.72;;;;;;;;;;5011346;28;20046;-79
2022/04/17 08:07:16;;;;;;;4.20;3.00;;;;;;;;;;5013614;28;20056;-80
2022/04/17 08:09:43;;;;;;;3.92;2.58;;;;;;;;;;5012283;28;20046;-79
2022/04/17 08:12:11;;;;;;;5.25;2.83;;;;;;;;;;5016001;28;20069;-79
2022/04/17 08:14:37;;;;;;;4.82;2.47;;;;;;;;;;5010008;28;20080;-80
2022/04/17 08:17:05;;;;;;;3.78;2.53;;;;;;;;;;5032548;28;20309;-80
2022/04/17 08:19:33;;;;;;;4.05;2.40;;;;;;;;;;5039191;28;20167;-79
2022/04/17 08:22:00;;;;;;;5.80;2.92;;;;;;;;;;5040839;28;20749;-81
2022/04/17 08:24:29;;;;;;;4.05;2.45;;;;;;;;;;5036331;28;20049;-82
2022/04/17 08:26:56;;;;;;;9.73;3.33;;;;;;;;;;5028993;28;20045;-81
2022/04/17 08:29:24;;;;;;;5.03;2.75;;;;;;;;;;5028787;28;20096;-82
2022/04/17 08:31:50;;;;;;;3.50;2.60;;;;;;;;;;5026600;28;20041;-82
2022/04/17 08:34:17;;;;;;;4.93;2.67;;;;;;;;;;5028714;28;20459;-82
2022/04/17 08:36:43;;;;;;;4.85;2.38;;;;;;;;;;5029576;28;20065;-80
2022/04/17 08:39:10;;;;;;;5.20;2.50;;;;;;;;;;5029179;28;20596;-83
2022/04/17 08:41:38;;;;;;;4.88;2.65;;;;;;;;;;5032773;28;20038;-84
2022/04/17 08:44:08;;;;;;;3.72;2.75;;;;;;;;;;5033933;28;20046;-85
2022/04/17 08:46:39;;;;;;;4.70;2.90;;;;;;;;;;5034676;28;20076;-83
2022/04/17 08:49:07;;;;;;;4.90;2.50;;;;;;;;;;5014854;28;20145;-82
2022/04/17 08:51:37;;;;;;;6.22;2.75;;;;;;;;;;5036153;28;20065;-85
2022/04/17 08:54:04;;;;;;;5.53;2.78;;;;;;;;;;5033921;28;20111;-84
2022/04/17 08:56:32;;;;;;;3.75;2.47;;;;;;;;;;5035332;28;20123;-84
2022/04/17 08:59:00;;;;;;;4.22;2.45;;;;;;;;;;5018060;28;20045;-82
2022/04/17 09:01:27;;;;;;;4.38;2.20;;;;;;;;;;5033890;28;20048;-85
2022/04/17 09:03:56;;;;;;;4.30;2.42;;;;;;;;;;5017338;28;20073;-83
2022/04/17 09:06:23;;;;;;;3.17;2.17;;;;;;;;;;5025324;28;20045;-82
2022/04/17 09:09:04;;;;;;;4.22;2.60;;;;;;;;;;5037000;28;20490;-81
2022/04/17 09:11:32;;;;;;;3.85;2.50;;;;;;;;;;5011166;28;20073;-84
2022/04/17 09:14:01;;;;;;;4.15;2.28;;;;;;;;;;5031363;28;20076;-82
2022/04/17 09:16:30;;;;;;;4.85;2.80;;;;;;;;;;5006639;28;20082;-81
2022/04/17 09:18:59;;;;;;;4.00;2.45;;;;;;;;;;4996474;28;20620;-82
2022/04/17 09:21:30;;;;;;;3.10;1.95;;;;;;;;;;4983149;28;20056;-79
2022/04/17 09:24:13;;;;;;;4.43;2.30;;;;;;;;;;4995674;28;20050;-80
2022/04/17 09:26:48;;;;;;;3.85;2.22;;;;;;;;;;4989938;28;20062;-81
2022/04/17 09:29:18;;;;;;;5.32;2.15;;;;;;;;;;4995129;28;20117;-81
2022/04/17 09:31:45;;;;;;;4.18;2.20;;;;;;;;;;4995116;28;20070;-79
2022/04/17 09:34:12;;;;;;;3.40;1.80;;;;;;;;;;4994835;28;20070;-78
2022/04/17 09:36:39;;;;;;;4.50;1.95;;;;;;;;;;4992051;28;20179;-79
2022/04/17 09:39:14;;;;;;;3.70;2.15;;;;;;;;;;4994358;28;20073;-82
2022/04/17 09:41:57;;;;;;;3.65;2.10;;;;;;;;;;4984343;28;20093;-82
2022/04/17 09:44:37;;;;;;;4.63;1.98;;;;;;;;;;4991421;28;20081;-78
2022/04/17 09:47:05;;;;;;;3.60;2.05;;;;;;;;;;4984733;28;20057;-77
2022/04/17 09:49:50;;;;;;;3.38;1.92;;;;;;;;;;4987993;28;20042;-78
2022/04/17 09:52:17;;;;;;;4.38;2.05;;;;;;;;;;4987595;28;20124;-79
2022/04/17 09:54:44;;;;;;;4.40;1.92;;;;;;;;;;4992338;28;20046;-80
2022/04/17 09:57:12;;;;;;;3.33;1.60;;;;;;;;;;4987536;28;20042;-80
2022/04/17 09:59:38;;;;;;;3.17;1.80;;;;;;;;;;4989613;28;20042;-80
2022/04/17 10:02:05;;;;;;;4.07;2.25;;;;;;;;;;4993287;28;20447;-79
2022/04/17 10:04:37;;;;;;;4.60;2.10;;;;;;;;;;4990510;28;20077;-78
2022/04/17 10:07:11;;;;;;;3.08;2.30;;;;;;;;;;4994218;28;20081;-80
2022/04/17 10:09:39;;;;;;;3.47;2.08;;;;;;;;;;4991403;28;20050;-80
2022/04/17 10:12:06;;;;;;;3.67;1.95;;;;;;;;;;4993066;28;20051;-79
2022/04/17 10:14:33;;;;;;;5.32;2.47;;;;;;;;;;4995171;28;20078;-78
2022/04/17 10:17:01;;;;;;;4.15;2.30;;;;;;;;;;5030387;28;20536;-78
2022/04/17 10:19:29;;;;;;;7.03;2.20;;;;;;;;;;5030136;28;20088;-79
2022/04/17 10:22:00;;;;;;;3.55;1.85;;;;;;;;;;5032959;28;20751;-78
2022/04/17 10:24:27;;;;;;;3.75;2.05;;;;;;;;;;5030227;28;20519;-78
2022/04/17 10:26:54;;;;;;;4.45;1.92;;;;;;;;;;5024882;28;20073;-79
2022/04/17 10:29:23;;;;;;;3.22;1.90;;;;;;;;;;5035950;28;20129;-79
2022/04/17 10:32:04;;;;;;;3.15;2.10;;;;;;;;;;5019243;28;20140;-80
2022/04/17 10:34:53;;;;;;;4.22;2.20;;;;;;;;;;5033182;28;20076;-79
2022/04/17 10:37:40;;;;;;;4.50;2.45;;;;;;;;;;5031944;28;20050;-78
2022/04/17 10:40:11;;;;;;;5.70;2.03;;;;;;;;;;5031532;28;20073;-79
2022/04/17 10:42:54;;;;;;;4.43;2.30;;;;;;;;;;5033004;28;20042;-79
2022/04/17 10:45:21;;;;;;;3.88;2.58;;;;;;;;;;5030431;28;20077;-78
2022/04/17 10:48:01;;;;;;;5.70;2.42;;;;;;;;;;5031778;28;20674;-78
2022/04/17 10:50:30;;;;;;;5.32;2.25;;;;;;;;;;5031505;28;20141;-78
2022/04/17 10:53:25;;;;;;;2.88;1.90;;;;;;;;;;5031186;28;20087;-77
2022/04/17 10:56:07;;;;;;;8.60;2.33;;;;;;;;;;5021625;28;20070;-81
2022/04/17 10:58:40;;;;;;;3.72;2.65;;;;;;;;;;5030215;28;20630;-80
2022/04/17 11:01:07;;;;;;;4.72;2.53;;;;;;;;;;5030583;28;20206;-78
2022/04/17 11:03:35;;;;;;;6.22;2.20;;;;;;;;;;5025892;28;20088;-79
2022/04/17 11:06:30;;;;;;;3.53;2.30;;;;;;;;;;5030597;28;20073;-79
2022/04/17 11:09:05;;;;;;;4.40;2.70;;;;;;;;;;5029561;28;20046;-78
2022/04/17 11:11:35;;;;;;;4.30;2.78;;;;;;;;;;5028199;28;20096;-78
2022/04/17 11:14:10;;;;;;;3.15;1.70;;;;;;;;;;5026533;28;20096;-79
2022/04/17 11:16:46;;;;;;;4.18;1.92;;;;;;;;;;5027099;28;20081;-77
2022/04/17 11:19:13;;;;;;;;;;;;;;;;;;5030140;28;20077;-78
2022/04/17 11:21:41;;;;;;;;;;;;;;;;;;5032699;28;19963;-78
2022/04/17 11:24:09;;;;;;;5.28;2.40;;;;;;;;;;5029033;28;19961;-79
2022/04/17 11:27:08;;;;;;;4.15;2.67;;;;;;;;;;5030445;28;20080;-79
2022/04/17 11:29:39;;;;;;;3.30;2.13;;;;;;;;;;5029503;28;20088;-79
2022/04/17 11:32:42;;;;;;;2.88;1.88;;;;;;;;;;5028881;28;20497;-78
2022/04/17 11:35:10;;;;;;;3.00;1.90;;;;;;;;;;5028818;28;20100;-78
2022/04/17 11:37:37;;;;;;;3.67;2.22;;;;;;;;;;5030258;28;20111;-79
2022/04/17 11:40:11;;;;;;;8.02;2.15;;;;;;;;;;5026681;28;20076;-79
2022/04/17 11:42:41;;;;;;;4.18;2.38;;;;;;;;;;5030903;28;20069;-79
2022/04/17 11:45:09;;;;;;;2.22;1.80;;;;;;;;;;5027407;28;20152;-79
2022/04/17 11:47:39;;;;;;;3.92;1.70;;;;;;;;;;5028363;28;20554;-78
2022/04/17 11:50:08;;;;;;;3.75;2.20;;;;;;;;;;5026620;28;20095;-77
2022/04/17 11:52:34;;;;;;;3.65;2.42;;;;;;;;;;5028409;28;20494;-78
2022/04/17 11:55:01;;;;;;;3.63;2.30;;;;;;;;;;5028809;28;20128;-78
2022/04/17 11:57:29;;;;;;;5.68;2.30;;;;;;;;;;5025086;28;20072;-77
2022/04/17 11:59:56;;;;;;;3.13;1.92;;;;;;;;;;5026002;28;20751;-77
2022/04/17 12:02:29;;;;;;;4.90;2.33;;;;;;;;;;5027480;28;20124;-78
2022/04/17 12:04:58;;;;;;;3.97;1.92;;;;;;;;;;5026991;28;20091;-78
2022/04/17 12:07:26;;;;;;;3.72;2.38;;;;;;;;;;5027805;28;20041;-79
2022/04/17 12:10:04;;;;;;;3.53;2.20;;;;;;;;;;5026768;28;20119;-76
2022/04/17 12:12:35;;;;;;;3.90;2.20;;;;;;;;;;5026866;28;20138;-79
2022/04/17 12:15:03;;;;;;;7.28;2.53;;;;;;;;;;5028138;28;20041;-77
2022/04/17 12:17:31;;;;;;;4.18;2.00;;;;;;;;;;5020839;28;20087;-79
2022/04/17 12:19:57;;;;;;;4.75;2.97;;;;;;;;;;5030320;28;20073;-80
2022/04/17 12:22:24;;;;;;;2.92;1.85;;;;;;;;;;5027391;28;20077;-81
2022/04/17 12:24:51;;;;;;;3.78;1.85;;;;;;;;;;5026895;28;20096;-81
2022/04/17 12:27:19;;;;;;;3.45;1.90;;;;;;;;;;5010022;28;20080;-81
2022/04/17 12:29:48;;;;;;;3.42;2.35;;;;;;;;;;5029345;28;21199;-83
2022/04/17 12:32:16;;;;;;;3.30;2.00;;;;;;;;;;5027471;28;20037;-83
2022/04/17 12:34:45;;;;;;;2.90;1.80;;;;;;;;;;5010839;28;20085;-82
2022/04/17 12:37:20;;;;;;;3.85;2.42;;;;;;;;;;5025955;28;20662;-79
2022/04/17 12:39:47;;;;;;;3.10;2.20;;;;;;;;;;5028792;28;20077;-77
2022/04/17 12:42:17;;;;;;;3.30;1.85;;;;;;;;;;5026545;28;20045;-80
2022/04/17 12:44:48;;;;;;;3.60;2.00;;;;;;;;;;5026820;28;20115;-78
2022/04/17 12:47:16;;;;;;;3.50;1.90;;;;;;;;;;5028144;28;20135;-80
2022/04/17 12:49:44;;;;;;;3.17;1.80;;;;;;;;;;5027860;28;20076;-82
2022/04/17 12:52:23;;;;;;;3.70;2.28;;;;;;;;;;5030985;28;20563;-82
2022/04/17 12:54:56;;;;;;;3.55;2.40;;;;;;;;;;5032720;28;20099;-83
2022/04/17 12:57:23;;;;;;;3.00;1.90;;;;;;;;;;5032688;28;20099;-80
2022/04/17 12:59:52;;;;;;;4.38;2.10;;;;;;;;;;5009951;28;20085;-79
2022/04/17 13:02:23;;;;;;;3.65;2.35;;;;;;;;;;5025207;28;20139;-81
2022/04/17 13:04:53;;;;;;;3.88;2.00;;;;;;;;;;5026632;28;20133;-81
2022/04/17 13:07:20;;;;;;;3.40;2.30;;;;;;;;;;5027992;28;20053;-82
2022/04/17 13:09:50;;;;;;;3.63;2.22;;;;;;;;;;5028723;28;20544;-82
2022/04/17 13:12:31;;;;;;;4.00;1.63;;;;;;;;;;5027244;28;20049;-79
2022/04/17 13:15:00;;;;;;;3.20;1.90;;;;;;;;;;5025355;28;20076;-85
2022/04/17 13:17:29;;;;;;;4.15;2.30;;;;;;;;;;5027749;28;20109;-82
2022/04/17 13:19:56;;;;;;;3.35;1.65;;;;;;;;;;5029656;28;20104;-83
2022/04/17 13:22:23;;;;;;;3.50;1.60;;;;;;;;;;5032212;28;20100;-83
2022/04/17 13:24:49;;;;;;;2.70;1.60;;;;;;;;;;5030244;28;20041;-80
2022/04/17 13:27:16;;;;;;;4.13;2.25;;;;;;;;;;5009434;28;20073;-79
2022/04/17 13:29:46;;;;;;;3.95;1.90;;;;;;;;;;4980747;28;20052;-80
2022/04/17 13:32:14;;;;;;;2.75;1.95;;;;;;;;;;5025099;28;20045;-79
2022/04/17 13:34:42;;;;;;;2.95;1.77;;;;;;;;;;5025868;28;20140;-80
2022/04/17 13:39:53;;;;;;;5.63;2.05;;;;;;;;;;5028841;28;20521;-80
2022/04/17 13:42:21;;;;;;;3.55;1.83;;;;;;;;;;5009584;28;20072;-79
2022/04/17 13:44:48;;;;;;;4.03;2.05;;;;;;;;;;5010922;28;20064;-79
2022/04/17 13:47:16;;;;;;;3.70;2.30;;;;;;;;;;5005386;28;20068;-79
2022/04/17 13:49:43;;;;;;;3.45;2.00;;;;;;;;;;5027255;28;20100;-79
2022/04/17 13:52:11;;;;;;;2.70;1.90;;;;;;;;;;5025603;28;20085;-81
2022/04/17 13:54:38;;;;;;;3.22;2.15;;;;;;;;;;5030595;28;20049;-80
2022/04/17 13:57:05;;;;;;;3.97;2.20;;;;;;;;;;5028680;28;20080;-79
2022/04/17 13:59:32;;;;;;;2.97;2.20;;;;;;;;;;5027616;28;20084;-80
2022/04/17 14:01:59;;;;;;;3.22;1.80;;;;;;;;;;5025586;28;20076;-79
2022/04/17 14:04:28;;;;;;;3.03;2.00;;;;;;;;;;5025634;28;20080;-81
2022/04/17 14:06:57;;;;;;;3.60;2.30;;;;;;;;;;5029345;28;20448;-80
2022/04/17 14:09:23;;;;;;;6.05;2.03;;;;;;;;;;5010087;28;20049;-80
2022/04/17 14:11:50;;;;;;;4.93;2.20;;;;;;;;;;5008344;28;20698;-81
2022/04/17 14:14:20;;;;;;;4.78;1.98;;;;;;;;;;5025066;28;20042;-81
2022/04/17 14:16:47;;;;;;;4.18;2.15;;;;;;;;;;5023239;28;20088;-81
2022/04/17 14:19:14;;;;;;;3.45;1.80;;;;;;;;;;5008475;28;20109;-83
2022/04/17 14:21:42;;;;;;;3.45;1.65;;;;;;;;;;5009519;28;20096;-83
2022/04/17 14:24:09;;;;;;;2.75;1.60;;;;;;;;;;5026641;28;20054;-79
2022/04/17 14:26:37;;;;;;;4.57;2.35;;;;;;;;;;5027387;28;20120;-80
2022/04/17 14:29:03;;;;;;;4.10;2.00;;;;;;;;;;4992285;28;20056;-80
2022/04/17 14:31:31;;;;;;;2.55;1.60;;;;;;;;;;5007102;28;20073;-81
2022/04/17 14:33:59;;;;;;;3.05;1.80;;;;;;;;;;5023916;28;20080;-81
2022/04/17 14:36:27;;;;;;;3.58;1.88;;;;;;;;;;5024295;28;20070;-84
2022/04/17 14:38:59;;;;;;;4.43;2.00;;;;;;;;;;5004849;28;20046;-82
2022/04/17 14:41:26;;;;;;;2.60;1.70;;;;;;;;;;5012704;28;20073;-82
2022/04/17 14:43:55;;;;;;;3.70;2.03;;;;;;;;;;5032643;28;20049;-83
2022/04/17 14:46:22;;;;;;;5.32;1.90;;;;;;;;;;5031043;28;20064;-83
2022/04/17 14:48:50;;;;;;;3.28;1.73;;;;;;;;;;5018362;28;20081;-83
2022/04/17 14:51:18;;;;;;;3.80;2.13;;;;;;;;;;5036066;28;20050;-84
2022/04/17 14:53:47;;;;;;;3.35;2.22;;;;;;;;;;5016245;28;20487;-84
2022/04/17 14:56:20;;;;;;;3.38;2.17;;;;;;;;;;5013358;28;20077;-84
2022/04/17 14:58:47;;;;;;;3.03;1.80;;;;;;;;;;5038576;28;20044;-84
2022/04/17 15:01:15;;;;;;;3.42;2.08;;;;;;;;;;5038904;28;20119;-84
2022/04/17 15:03:43;;;;;;;4.93;2.03;;;;;;;;;;5004676;28;20122;-85
2022/04/17 15:06:11;;;;;;;3.50;2.00;;;;;;;;;;5037622;28;20046;-85
2022/04/17 15:08:39;;;;;;;2.75;1.63;;;;;;;;;;5020010;28;20037;-85